Time;durP1;ratioP1;P1;durP2;ratioP2;P2;SDS_P1;SDS_P2;PMS_P1;PMS_P2;Temp;Humidity;BMP_temperature;BMP_pressure;BME280_temperature;BME280_humidity;BME280_pressure;Samples;Min_cycle;Max_cycle;Signal;HPM_P1;HPM_P2
2023/06/01 06:20:33;;;;;;;1.80;1.60;;;;;;;25.63;30.27;99628.08;101467;1290;601903;-62
2023/06/01 06:23:02;;;;;;;1.80;1.30;;;;;;;26.49;28.98;99624.34;103653;1264;59947;-60
2023/06/01 06:25:29;;;;;;;3.50;1.50;;;;;;;26.55;28.73;99619.52;107059;1264;60166;-61
2023/06/01 06:27:57;;;;;;;2.60;1.60;;;;;;;26.61;29.11;99628.26;106949;1264;72425;-62
2023/06/01 06:30:25;;;;;;;1.80;1.20;;;;;;;26.67;28.51;99622.36;106944;1263;69069;-61
2023/06/01 06:32:53;;;;;;;3.30;1.60;;;;;;;26.76;28.94;99625.48;106997;1264;72338;-62
2023/06/01 06:35:20;;;;;;;1.20;1.10;;;;;;;26.85;28.79;99627.36;107199;1261;133070;-61
2023/06/01 06:37:48;;;;;;;2.60;1.30;;;;;;;26.88;28.74;99619.36;107352;1261;59734;-61
2023/06/01 06:40:17;;;;;;;3.80;1.10;;;;;;;26.88;28.76;99618.77;107384;1261;72299;-61
2023/06/01 06:42:46;;;;;;;2.30;1.50;;;;;;;27.04;28.58;99618.83;107451;1262;69029;-62
2023/06/01 06:45:14;;;;;;;2.40;1.50;;;;;;;27.05;28.36;99615.86;107293;1261;72353;-61
2023/06/01 06:47:42;;;;;;;2.40;1.50;;;;;;;26.99;28.09;99613.98;107332;1261;60798;-63
2023/06/01 06:50:10;;;;;;;1.60;1.40;;;;;;;27.09;28.27;99613.21;107214;1261;60804;-63
2023/06/01 06:52:37;;;;;;;1.70;1.20;;;;;;;27.16;28.25;99613.66;107028;1262;73524;-61
2023/06/01 06:55:06;;;;;;;2.30;1.60;;;;;;;27.19;28.22;99612.42;107452;1261;69167;-61
2023/06/01 06:57:34;;;;;;;1.70;1.50;;;;;;;27.26;27.93;99615.33;107305;1263;72357;-62
2023/06/01 07:00:04;;;;;;;3.20;1.40;;;;;;;27.25;27.82;99614.63;107275;1263;60246;-61
2023/06/01 07:02:31;;;;;;;2.00;1.20;;;;;;;27.26;27.75;99617.13;107220;1261;59085;-61
2023/06/01 07:04:59;;;;;;;;;;;;;;;27.31;27.33;99613.77;107351;1261;72885;-62
2023/06/01 07:07:27;;;;;;;4.10;1.60;;;;;;;27.42;27.58;99613.63;107355;1263;69807;-62
2023/06/01 07:10:15;;;;;;;1.30;1.20;;;;;;;27.50;27.60;99612.90;108400;1253;71150;-61
2023/06/01 07:12:44;;;;;;;2.00;1.20;;;;;;;27.65;27.22;99607.41;108359;1253;60190;-61
2023/06/01 07:15:12;;;;;;;1.50;1.20;;;;;;;27.70;27.08;99605.60;108343;1254;60093;-61
2023/06/01 07:17:40;;;;;;;3.30;1.10;;;;;;;27.80;27.14;99601.05;108486;1254;72767;-63
2023/06/01 07:20:11;;;;;;;2.30;1.40;;;;;;;27.80;26.71;99600.10;108362;1252;69812;-63
2023/06/01 07:22:39;;;;;;;1.70;1.20;;;;;;;27.83;26.60;99601.02;108425;1253;72605;-62
2023/06/01 07:25:09;;;;;;;3.40;1.40;;;;;;;27.89;26.52;99600.52;108411;1253;59109;-65
2023/06/01 07:27:37;;;;;;;4.20;1.40;;;;;;;27.86;26.51;99596.32;108304;1252;59689;-62
2023/06/01 07:30:07;;;;;;;2.20;1.60;;;;;;;27.92;26.36;99595.48;108411;1252;72232;-61
2023/06/01 07:32:35;;;;;;;1.80;1.10;;;;;;;27.99;26.35;99591.77;108396;1254;69679;-60
2023/06/01 07:35:05;;;;;;;1.50;1.40;;;;;;;28.04;26.34;99591.77;108318;1254;72298;-61
2023/06/01 07:37:32;;;;;;;3.30;1.30;;;;;;;28.08;26.04;99589.30;108334;1254;60592;-61
2023/06/01 07:40:00;;;;;;;3.00;1.30;;;;;;;28.17;26.49;99584.51;108352;1253;60114;-62
2023/06/01 07:42:27;;;;;;;1.20;1.00;;;;;;;28.21;26.57;99582.75;108348;1253;72872;-64
2023/06/01 07:44:55;;;;;;;1.50;1.10;;;;;;;28.35;26.58;99576.58;108376;1252;69012;-62
2023/06/01 07:47:25;;;;;;;;;;;;;;;28.46;26.17;99577.73;108037;1254;72890;-62
2023/06/01 07:49:53;;;;;;;2.70;1.20;;;;;;;28.58;26.42;99576.04;108170;1254;59781;-64
2023/06/01 07:52:20;;;;;;;2.50;1.10;;;;;;;28.60;25.73;99578.30;108144;1258;60193;-62
2023/06/01 07:54:49;;;;;;;1.70;1.30;;;;;;;28.56;25.67;99573.88;108170;1253;72991;-62
2023/06/01 07:57:17;;;;;;;2.10;1.40;;;;;;;28.53;26.10;99571.88;108211;1253;69158;-63
2023/06/01 07:59:45;;;;;;;;;;;;;;;28.61;25.80;99571.30;108258;1254;71578;-63
2023/06/01 08:02:13;;;;;;;;;;;;;;;28.69;25.75;99566.63;108373;1254;59851;-60
2023/06/01 08:04:41;;;;;;;3.50;1.10;;;;;;;28.86;25.67;99564.34;108261;1252;59428;-63
2023/06/01 08:07:29;;;;;;;;;;;;;;;29.02;25.24;99560.84;108546;1254;73245;-62
2023/06/01 08:10:00;;;;;;;2.80;1.20;;;;;;;29.04;25.09;99558.22;108391;1254;69038;-65
2023/06/01 08:12:27;;;;;;;2.00;1.00;;;;;;;28.96;25.38;99557.43;108339;1253;73358;-64
2023/06/01 08:14:57;;;;;;;;;;;;;;;28.94;24.81;99551.83;108374;1253;58999;-62
2023/06/01 08:17:24;;;;;;;3.20;1.30;;;;;;;28.99;25.35;99550.33;108397;1252;59841;-63
2023/06/01 08:19:52;;;;;;;1.40;1.30;;;;;;;29.01;25.24;99551.05;108395;1254;73682;-63
2023/06/01 08:25:58;;;;;;;2.00;1.50;;;;;;;28.85;25.12;99544.23;101024;1305;615073;-61
2023/06/01 08:28:26;;;;;;;4.20;1.30;;;;;;;28.89;24.58;99544.73;103650;1271;59984;-61
2023/06/01 08:30:53;;;;;;;2.90;1.40;;;;;;;28.94;25.12;99543.05;103503;1267;59404;-63
2023/06/01 08:33:20;;;;;;;3.00;1.40;;;;;;;29.01;24.98;99538.77;103687;1270;71983;-61
2023/06/01 08:35:46;;;;;;;1.20;1.00;;;;;;;29.06;24.81;99542.46;103835;1270;69574;-64
2023/06/01 08:38:14;;;;;;;1.50;1.30;;;;;;;29.12;24.32;99537.98;103633;1268;180929;-62
2023/06/01 08:40:41;;;;;;;2.40;1.20;;;;;;;29.14;24.68;99533.63;103917;1283;60003;-64
2023/06/01 08:43:19;;;;;;;3.10;1.60;;;;;;;29.16;25.01;99537.33;104015;1266;59699;-62
2023/06/01 08:45:49;;;;;;;1.60;1.10;;;;;;;29.18;24.16;99529.35;103866;1267;71907;-62
2023/06/01 08:48:17;;;;;;;2.90;1.10;;;;;;;29.21;24.21;99523.15;103975;1267;69148;-63
2023/06/01 08:50:49;;;;;;;1.30;1.10;;;;;;;29.27;24.13;99522.18;103978;1276;72459;-61
2023/06/01 08:53:21;;;;;;;2.00;1.10;;;;;;;29.35;24.41;99522.87;103875;1280;59984;-62
2023/06/01 08:55:55;;;;;;;1.80;1.30;;;;;;;29.47;24.33;99518.75;103881;1267;59892;-61
2023/06/01 08:58:22;;;;;;;1.50;1.10;;;;;;;29.52;23.64;99513.17;103980;1263;73424;-61
2023/06/01 09:00:50;;;;;;;1.30;1.20;;;;;;;29.57;24.14;99512.23;103908;1266;70569;-62
2023/06/01 09:03:18;;;;;;;3.20;1.30;;;;;;;29.61;23.77;99509.90;104059;1266;72730;-59
2023/06/01 09:05:45;;;;;;;3.20;1.60;;;;;;;29.61;23.46;99513.27;103872;1267;59769;-61
2023/06/01 09:08:15;;;;;;;2.30;1.30;;;;;;;29.64;23.30;99511.47;103897;1267;59937;-61
2023/06/01 09:10:43;;;;;;;1.60;1.30;;;;;;;29.70;23.38;99505.20;103765;1271;72827;-64
2023/06/01 09:13:10;;;;;;;2.40;1.40;;;;;;;29.78;22.78;99505.02;103866;1260;70447;-60
2023/06/01 09:15:51;;;;;;;1.20;1.10;;;;;;;29.83;22.97;99503.56;103994;1263;72439;-59
2023/06/01 09:18:18;;;;;;;1.30;1.20;;;;;;;29.86;23.45;99497.42;103958;1266;60371;-60
2023/06/01 09:20:48;;;;;;;2.40;1.40;;;;;;;29.94;23.37;99495.27;104464;1262;60254;-62
2023/06/01 09:23:25;;;;;;;2.80;1.40;;;;;;;29.98;23.06;99489.48;104228;1257;72966;-60
2023/06/01 09:26:17;;;;;;;2.10;1.50;;;;;;;29.99;23.07;99491.73;104371;1267;69352;-61
2023/06/01 09:28:57;;;;;;;1.30;1.20;;;;;;;30.09;22.94;99480.89;104317;1256;72979;-60
2023/06/01 09:31:39;;;;;;;1.70;1.30;;;;;;;30.22;23.41;99483.33;104489;1252;60023;-61
2023/06/01 09:34:11;;;;;;;2.70;1.20;;;;;;;30.22;23.04;99481.20;104318;1257;60457;-62
2023/06/01 09:36:39;;;;;;;1.20;1.10;;;;;;;30.27;22.92;99479.32;104341;1258;72705;-62
2023/06/01 09:39:07;;;;;;;4.60;1.60;;;;;;;30.24;23.18;99480.46;104488;1254;69453;-61
2023/06/01 09:41:52;;;;;;;1.60;1.40;;;;;;;30.28;22.75;99481.63;104456;1256;71906;-61
2023/06/01 09:44:27;;;;;;;3.10;1.40;;;;;;;30.44;22.49;99475.17;104831;1251;60399;-61
2023/06/01 09:47:09;;;;;;;2.40;1.50;;;;;;;30.51;22.77;99470.49;104452;1257;62187;-65
2023/06/01 09:49:38;;;;;;;2.00;1.40;;;;;;;30.56;22.88;99468.93;106117;1251;73266;-61
2023/06/01 09:52:05;;;;;;;2.30;1.70;;;;;;;30.47;23.07;99474.84;108538;1251;69982;-61
2023/06/01 09:54:33;;;;;;;2.70;1.30;;;;;;;30.56;22.93;99467.65;105330;1255;72919;-64
2023/06/01 09:57:00;;;;;;;;;;;;;;;30.70;22.76;99466.77;105268;1267;59908;-64
2023/06/01 09:59:41;;;;;;;;;;;;;;;30.81;22.97;99468.56;104585;1252;59626;-61
2023/06/01 10:02:15;;;;;;;1.50;1.40;;;;;;;30.85;22.65;99468.95;105715;1253;72967;-65
2023/06/01 10:04:55;;;;;;;3.10;1.60;;;;;;;30.87;22.42;99463.13;105002;1256;69156;-64
2023/06/01 10:07:22;;;;;;;1.60;1.50;;;;;;;30.83;22.69;99457.98;104676;1256;73572;-63
2023/06/01 10:09:58;;;;;;;1.60;1.50;;;;;;;30.89;22.71;99456.64;104694;1255;60444;-63
2023/06/01 10:12:25;;;;;;;4.20;1.70;;;;;;;30.95;22.62;99452.84;104713;1258;60673;-66
2023/06/01 10:14:52;;;;;;;2.50;1.40;;;;;;;30.92;22.84;99455.64;104502;1251;73253;-62
2023/06/01 10:17:19;;;;;;;2.90;1.70;;;;;;;30.91;22.75;99452.23;104582;1267;70015;-65
2023/06/01 10:19:47;;;;;;;2.20;1.60;;;;;;;31.03;22.55;99452.70;104726;1254;71725;-66
2023/06/01 10:22:14;;;;;;;4.70;2.10;;;;;;;31.08;22.68;99450.75;104616;1256;60710;-64
2023/06/01 10:24:41;;;;;;;2.00;1.50;;;;;;;31.12;22.38;99447.30;104426;1254;59721;-62
2023/06/01 10:27:20;;;;;;;3.20;1.40;;;;;;;31.22;22.40;99444.02;104543;1252;73496;-64
2023/06/01 10:29:48;;;;;;;2.20;1.50;;;;;;;31.34;22.35;99443.34;104476;1254;69961;-64
2023/06/01 10:32:37;;;;;;;3.70;2.20;;;;;;;31.33;22.06;99442.88;104922;1253;71769;-64
2023/06/01 10:35:05;;;;;;;1.60;1.30;;;;;;;31.39;21.97;99438.27;104756;1254;59737;-63
2023/06/01 10:37:32;;;;;;;2.40;1.50;;;;;;;31.39;22.01;99436.48;104619;1262;60277;-60
2023/06/01 10:40:20;;;;;;;4.90;1.60;;;;;;;31.26;22.18;99434.89;104707;1253;72617;-65
2023/06/01 10:42:47;;;;;;;1.70;1.50;;;;;;;31.34;22.20;99430.03;104656;1256;69690;-64
2023/06/01 10:45:41;;;;;;;2.10;1.70;;;;;;;31.42;21.99;99424.11;104703;1255;72694;-62
2023/06/01 10:48:10;;;;;;;2.70;1.60;;;;;;;31.49;22.13;99420.95;104966;1251;59791;-62
2023/06/01 10:50:38;;;;;;;4.80;1.50;;;;;;;31.50;22.25;99424.05;104950;1252;60349;-64
2023/06/01 10:53:24;;;;;;;2.90;1.70;;;;;;;31.52;22.22;99418.63;105383;1251;72692;-64
2023/06/01 10:56:22;;;;;;;4.10;1.70;;;;;;;31.57;22.01;99416.38;108526;1251;69404;-63
2023/06/01 10:59:07;;;;;;;2.00;1.80;;;;;;;31.56;22.27;99409.02;106286;1253;73382;-63
2023/06/01 11:01:45;;;;;;;3.40;1.60;;;;;;;31.66;21.81;99409.48;104900;1253;59937;-63
2023/06/01 11:04:12;;;;;;;3.10;1.60;;;;;;;31.75;21.77;99404.51;105403;1259;59803;-65
2023/06/01 11:06:42;;;;;;;4.70;1.70;;;;;;;31.88;21.53;99400.36;105072;1253;72851;-61
2023/06/01 11:09:10;;;;;;;2.70;1.60;;;;;;;31.86;21.33;99398.54;104378;1256;69857;-62
2023/06/01 11:11:52;;;;;;;3.00;1.60;;;;;;;31.88;21.58;99392.25;104442;1253;73468;-61
2023/06/01 11:14:23;;;;;;;2.30;1.60;;;;;;;31.97;21.33;99390.73;104697;1252;60527;-60
2023/06/01 11:16:51;;;;;;;3.60;2.00;;;;;;;31.88;20.94;99394.04;104533;1268;59736;-61
2023/06/01 11:19:31;;;;;;;3.80;2.10;;;;;;;31.89;20.98;99385.55;105230;1252;73390;-60
2023/06/01 11:22:01;;;;;;;3.60;1.70;;;;;;;31.91;21.15;99380.61;104887;1256;70254;-61
2023/06/01 11:24:37;;;;;;;1.80;1.70;;;;;;;31.89;21.07;99376.70;104528;1267;72612;-62
2023/06/01 11:27:06;;;;;;;2.30;1.50;;;;;;;31.97;21.39;99380.15;104928;1252;59898;-62
2023/06/01 11:29:34;;;;;;;3.80;1.80;;;;;;;31.89;21.12;99383.20;104683;1256;60122;-61
2023/06/01 11:32:02;;;;;;;2.10;1.90;;;;;;;31.88;20.59;99380.08;104794;1253;71864;-63
2023/06/01 11:34:43;;;;;;;3.60;1.70;;;;;;;31.85;20.92;99378.00;104515;1269;70258;-62
2023/06/01 11:37:14;;;;;;;6.80;1.70;;;;;;;31.89;20.77;99367.33;104359;1256;72340;-61
2023/06/01 11:39:41;;;;;;;3.60;2.10;;;;;;;32.01;21.35;99372.01;104461;1251;60257;-62
2023/06/01 11:42:09;;;;;;;1.90;1.80;;;;;;;32.13;20.50;99370.98;104584;1256;60022;-62
2023/06/01 11:44:41;;;;;;;3.40;2.10;;;;;;;32.14;20.64;99367.52;104518;1253;71875;-62
2023/06/01 11:47:09;;;;;;;5.50;2.30;;;;;;;32.17;20.72;99368.27;104497;1254;70142;-61
2023/06/01 11:49:47;;;;;;;2.30;1.60;;;;;;;32.25;21.04;99363.55;105047;1255;74463;-61
2023/06/01 11:52:15;;;;;;;2.50;1.90;;;;;;;32.41;20.89;99363.37;108451;1251;59909;-64
2023/06/01 11:54:42;;;;;;;1.70;1.60;;;;;;;32.47;20.45;99359.58;106815;1252;60031;-61
2023/06/01 11:57:09;;;;;;;2.70;1.70;;;;;;;32.42;20.64;99360.44;105164;1253;73465;-62
2023/06/01 11:59:37;;;;;;;3.40;1.80;;;;;;;32.44;20.52;99350.02;105729;1251;70042;-64
2023/06/01 12:02:22;;;;;;;5.00;1.40;;;;;;;32.56;20.50;99341.29;105238;1256;73415;-63
2023/06/01 12:04:57;;;;;;;2.00;1.70;;;;;;;32.69;20.41;99337.20;105188;1253;60607;-62
2023/06/01 12:07:24;;;;;;;3.60;1.70;;;;;;;32.70;20.62;99339.67;105117;1252;59713;-65
2023/06/01 12:09:53;;;;;;;;;;;;;;;32.71;20.56;99337.78;104490;1252;73862;-61
2023/06/01 12:12:24;;;;;;;3.10;1.80;;;;;;;32.69;20.69;99338.05;104913;1252;69221;-60
2023/06/01 12:14:53;;;;;;;4.50;1.90;;;;;;;32.71;20.64;99333.71;104618;1256;73509;-61
2023/06/01 12:17:21;;;;;;;2.00;1.80;;;;;;;32.70;20.28;99331.34;104653;1252;60003;-63
2023/06/01 12:19:48;;;;;;;3.50;1.90;;;;;;;32.72;20.31;99329.11;104645;1255;60201;-61
2023/06/01 12:22:16;;;;;;;3.80;2.00;;;;;;;32.78;20.20;99321.01;104803;1252;73321;-60
2023/06/01 12:24:44;;;;;;;3.50;1.60;;;;;;;32.75;20.40;99320.69;104387;1257;70263;-62
2023/06/01 12:27:15;;;;;;;2.80;2.00;;;;;;;32.76;20.46;99316.69;104496;1254;73051;-63
2023/06/01 12:29:44;;;;;;;2.50;2.00;;;;;;;32.71;20.11;99318.27;104379;1252;61105;-62
2023/06/01 12:32:11;;;;;;;1.40;1.30;;;;;;;32.79;20.03;99310.52;104225;1254;60187;-66
2023/06/01 12:34:39;;;;;;;;;;;;;;;32.95;20.24;99307.73;104554;1256;72683;-62
2023/06/01 12:37:18;;;;;;;;;;;;;;;33.16;20.20;99301.47;104429;1254;70076;-60
2023/06/01 12:39:55;;;;;;;1.40;1.20;;;;;;;33.21;20.08;99300.26;105044;1251;73238;-65
2023/06/01 12:42:36;;;;;;;2.30;1.50;;;;;;;33.21;20.32;99298.86;104783;1253;61095;-67
2023/06/01 12:45:05;;;;;;;2.30;1.90;;;;;;;33.29;20.58;99294.31;104558;1252;60542;-66
2023/06/01 12:47:39;;;;;;;3.20;1.80;;;;;;;33.24;20.34;99292.46;104382;1267;73529;-65
2023/06/01 12:50:11;;;;;;;4.70;2.00;;;;;;;33.21;20.36;99293.09;104601;1259;69360;-61
2023/06/01 12:52:39;;;;;;;5.10;2.00;;;;;;;33.22;20.55;99295.23;107941;1251;72742;-59
2023/06/01 12:55:07;;;;;;;5.20;2.00;;;;;;;33.22;20.27;99287.38;104589;1253;60425;-64
2023/06/01 12:57:34;;;;;;;5.80;2.10;;;;;;;33.27;20.10;99281.30;104407;1256;60447;-59
2023/06/01 13:00:02;;;;;;;3.00;1.90;;;;;;;33.30;20.02;99278.75;104634;1256;73912;-62
2023/06/01 13:02:29;;;;;;;2.60;1.40;;;;;;;33.31;19.85;99274.35;104401;1257;69891;-63
2023/06/01 13:04:58;;;;;;;;;;;;;;;33.36;20.12;99274.98;104263;1253;72700;-63
2023/06/01 13:07:25;;;;;;;4.40;1.90;;;;;;;33.43;20.20;99274.95;104362;1257;60962;-60
2023/06/01 13:09:52;;;;;;;1.90;1.60;;;;;;;33.39;19.84;99275.92;104612;1264;60579;-60
2023/06/01 13:12:19;;;;;;;3.70;2.10;;;;;;;33.40;20.03;99272.96;104891;1260;73561;-60
2023/06/01 13:14:46;;;;;;;3.20;1.80;;;;;;;33.39;20.34;99274.70;104540;1252;69211;-62
2023/06/01 13:17:14;;;;;;;3.50;2.00;;;;;;;33.49;20.05;99270.51;104303;1257;73318;-63
2023/06/01 13:19:41;;;;;;;2.60;1.90;;;;;;;33.50;20.33;99266.93;104566;1254;60591;-62
2023/06/01 13:22:10;;;;;;;2.20;1.60;;;;;;;33.55;19.99;99265.67;104385;1253;60514;-61
2023/06/01 13:24:38;;;;;;;5.90;1.80;;;;;;;33.62;19.53;99257.73;104376;1251;72955;-63
2023/06/01 13:27:08;;;;;;;4.30;1.80;;;;;;;33.68;20.07;99252.67;104499;1267;70101;-61
2023/06/01 13:29:35;;;;;;;2.60;1.60;;;;;;;33.70;19.78;99252.80;104588;1253;73287;-61
2023/06/01 13:32:02;;;;;;;3.30;2.20;;;;;;;33.69;20.11;99246.38;104648;1253;60560;-61
2023/06/01 13:34:30;;;;;;;4.20;1.80;;;;;;;33.69;19.94;99243.63;104860;1252;60451;-61
2023/06/01 13:36:57;;;;;;;1.90;1.70;;;;;;;33.80;19.65;99241.98;104305;1258;73576;-60
2023/06/01 13:39:24;;;;;;;3.90;1.80;;;;;;;33.94;19.91;99240.61;104800;1256;69994;-63
2023/06/01 13:41:51;;;;;;;;;;;;;;;34.01;19.86;99242.64;104545;1253;72803;-62
2023/06/01 13:44:19;;;;;;;2.00;1.70;;;;;;;33.99;19.96;99240.72;105081;1253;60708;-61
2023/06/01 13:46:46;;;;;;;2.60;1.60;;;;;;;33.85;19.85;99240.30;105264;1253;60431;-62
2023/06/01 13:49:12;;;;;;;3.50;1.70;;;;;;;33.87;19.67;99231.59;107360;1251;73301;-62
2023/06/01 13:51:39;;;;;;;2.10;1.90;;;;;;;33.95;19.78;99229.20;105270;1251;69618;-63
2023/06/01 13:54:06;;;;;;;2.40;1.80;;;;;;;33.96;19.85;99224.56;108411;1252;72376;-63
2023/06/01 13:56:35;;;;;;;3.30;1.90;;;;;;;33.97;20.01;99229.66;106434;1251;60588;-61
2023/06/01 13:59:02;;;;;;;4.80;2.70;;;;;;;34.02;19.77;99228.27;105034;1252;60782;-62
2023/06/01 14:01:29;;;;;;;2.00;1.60;;;;;;;34.02;19.64;99224.70;105120;1253;73605;-61
2023/06/01 14:03:56;;;;;;;3.90;1.90;;;;;;;34.09;19.82;99223.15;105127;1251;69485;-62
2023/06/01 14:06:24;;;;;;;3.00;1.90;;;;;;;34.17;19.60;99224.08;105745;1253;72728;-61
2023/06/01 14:08:51;;;;;;;4.80;1.90;;;;;;;34.11;19.43;99222.27;104988;1252;60629;-62
2023/06/01 14:11:18;;;;;;;;;;;;;;;34.00;19.71;99222.16;104596;1256;60185;-61
2023/06/01 14:13:46;;;;;;;2.20;2.00;;;;;;;33.93;19.64;99223.23;104497;1255;73846;-62
2023/06/01 14:16:13;;;;;;;2.30;2.10;;;;;;;33.89;19.74;99222.67;104594;1252;69174;-62
2023/06/01 14:18:40;;;;;;;4.70;1.50;;;;;;;33.95;19.76;99217.40;104499;1254;73136;-63
2023/06/01 14:21:07;;;;;;;;;;;;;;;34.04;19.54;99217.75;104749;1252;60451;-62
2023/06/01 14:23:36;;;;;;;2.20;1.50;;;;;;;34.15;19.32;99212.63;104838;1252;60473;-62
2023/06/01 14:26:03;;;;;;;2.60;1.70;;;;;;;34.21;19.67;99209.20;104987;1252;72657;-59
2023/06/01 14:28:31;;;;;;;;;;;;;;;34.34;19.51;99208.03;105101;1263;69404;-61
2023/06/01 14:30:58;;;;;;;3.20;1.60;;;;;;;34.44;19.37;99206.34;104709;1256;72890;-60
2023/06/01 14:33:25;;;;;;;2.00;1.60;;;;;;;34.41;19.31;99202.27;105063;1253;60555;-62
2023/06/01 14:35:52;;;;;;;4.00;1.90;;;;;;;34.41;19.28;99204.99;105159;1252;60439;-61
2023/06/01 14:38:19;;;;;;;4.10;1.80;;;;;;;34.40;19.07;99206.73;105016;1251;73656;-60
2023/06/01 14:40:46;;;;;;;2.60;1.90;;;;;;;34.39;18.96;99202.76;104929;1254;69197;-59
2023/06/01 14:43:14;;;;;;;3.90;1.80;;;;;;;34.41;18.97;99198.36;104690;1256;72445;-60
2023/06/01 14:45:41;;;;;;;2.30;1.70;;;;;;;34.43;18.85;99194.09;104301;1267;60562;-60
2023/06/01 14:48:09;;;;;;;4.10;2.30;;;;;;;34.46;19.02;99188.92;104818;1252;60448;-61
2023/06/01 14:50:36;;;;;;;3.70;1.90;;;;;;;34.54;19.05;99183.98;104754;1254;72375;-60
2023/06/01 14:53:03;;;;;;;4.50;2.00;;;;;;;34.61;19.23;99185.10;104639;1255;70415;-65
2023/06/01 14:55:30;;;;;;;3.00;1.70;;;;;;;34.87;18.54;99182.86;108462;1251;72825;-63
2023/06/01 14:57:57;;;;;;;2.00;1.80;;;;;;;35.33;18.99;99180.60;104905;1252;60557;-61
2023/06/01 15:00:24;;;;;;;4.80;2.10;;;;;;;35.89;18.57;99176.35;104750;1251;60444;-63
2023/06/01 15:02:51;;;;;;;3.30;2.10;;;;;;;36.53;18.50;99170.41;105035;1252;72869;-62
2023/06/01 15:05:18;;;;;;;4.70;2.10;;;;;;;37.14;18.06;99163.27;104826;1252;69638;-61
2023/06/01 15:07:45;;;;;;;2.30;1.90;;;;;;;37.71;17.66;99161.75;104969;1253;73321;-61
2023/06/01 15:10:12;;;;;;;4.00;2.20;;;;;;;38.36;17.76;99157.52;104991;1252;60562;-63
2023/06/01 15:12:40;;;;;;;6.60;2.30;;;;;;;38.79;17.51;99160.89;104906;1253;60529;-62
2023/06/01 15:15:07;;;;;;;2.30;2.10;;;;;;;39.08;17.56;99159.73;104445;1256;73574;-65
2023/06/01 15:17:36;;;;;;;1.70;1.60;;;;;;;39.35;16.09;99154.58;104696;1253;69853;-63
2023/06/01 15:20:03;;;;;;;3.20;2.00;;;;;;;39.72;15.94;99157.52;104300;1267;72988;-66
2023/06/01 15:22:30;;;;;;;1.80;1.60;;;;;;;39.88;16.13;99156.38;104365;1251;60505;-67
2023/06/01 15:24:57;;;;;;;2.30;1.80;;;;;;;39.94;16.20;99152.61;104788;1253;60543;-65
2023/06/01 15:27:24;;;;;;;2.70;1.70;;;;;;;40.03;16.64;99153.39;104861;1253;73700;-65
2023/06/01 15:29:51;;;;;;;3.20;1.60;;;;;;;40.02;16.02;99153.19;104627;1253;70277;-65
2023/06/01 15:32:18;;;;;;;2.40;1.70;;;;;;;40.18;16.18;99153.42;104407;1255;72932;-65
2023/06/01 15:34:45;;;;;;;3.20;1.50;;;;;;;40.16;15.96;99153.32;104356;1253;60532;-63
2023/06/01 15:37:12;;;;;;;3.80;1.60;;;;;;;40.02;16.31;99153.63;104409;1256;60468;-64
2023/06/01 15:39:39;;;;;;;2.40;1.60;;;;;;;39.81;15.97;99151.94;104318;1267;74268;-62
2023/06/01 15:42:07;;;;;;;1.70;1.60;;;;;;;39.59;16.08;99145.59;104637;1255;70093;-66
2023/06/01 15:44:43;;;;;;;2.20;1.70;;;;;;;39.36;15.91;99142.59;104715;1262;73168;-64
2023/06/01 15:47:11;;;;;;;2.50;1.50;;;;;;;39.12;16.35;99141.96;104315;1252;60540;-63
2023/06/01 15:49:41;;;;;;;;;;;;;;;39.05;16.36;99143.35;104575;1258;60177;-62
2023/06/01 15:52:08;;;;;;;2.40;1.60;;;;;;;38.87;16.04;99142.70;104448;1256;74250;-61
2023/06/01 15:54:36;;;;;;;2.70;1.60;;;;;;;39.14;16.48;99140.81;106950;1252;70496;-64
2023/06/01 15:57:05;;;;;;;3.10;2.00;;;;;;;39.37;15.99;99133.85;107874;1252;73448;-64
2023/06/01 15:59:32;;;;;;;2.50;1.80;;;;;;;39.41;15.84;99132.83;105099;1251;60541;-64
2023/06/01 16:02:00;;;;;;;3.00;1.90;;;;;;;39.26;15.82;99132.70;105507;1252;60560;-61
2023/06/01 16:04:27;;;;;;;4.00;1.80;;;;;;;38.98;16.04;99136.79;105039;1267;74426;-64
2023/06/01 16:06:56;;;;;;;3.10;1.70;;;;;;;38.51;16.01;99136.63;104625;1251;69141;-63
2023/06/01 16:09:24;;;;;;;4.00;2.10;;;;;;;38.16;16.52;99136.40;104941;1253;72649;-65
2023/06/01 16:11:50;;;;;;;1.60;1.50;;;;;;;37.88;17.05;99138.05;105036;1255;60594;-64
2023/06/01 16:14:17;;;;;;;2.70;1.60;;;;;;;37.59;17.22;99140.44;104444;1253;59921;-63
2023/06/01 16:16:44;;;;;;;1.70;1.50;;;;;;;37.27;17.32;99135.23;104375;1267;73566;-66
2023/06/01 16:19:12;;;;;;;1.60;1.40;;;;;;;36.92;17.73;99135.86;104273;1272;69783;-62
2023/06/01 16:21:39;;;;;;;2.70;1.60;;;;;;;36.67;18.13;99134.58;104419;1253;72830;-62
2023/06/01 16:24:06;;;;;;;2.00;1.50;;;;;;;36.30;18.55;99139.14;104808;1256;60530;-62
2023/06/01 16:26:34;;;;;;;2.10;1.50;;;;;;;35.82;18.51;99139.61;104384;1256;60976;-61
2023/06/01 16:29:00;;;;;;;2.70;1.50;;;;;;;35.42;18.71;99140.07;104562;1257;74413;-62
2023/06/01 16:31:28;;;;;;;2.10;1.60;;;;;;;35.16;19.03;99135.09;104501;1256;70204;-61
2023/06/01 16:33:55;;;;;;;4.50;1.30;;;;;;;34.87;19.22;99137.45;104716;1259;72519;-63
2023/06/01 16:36:22;;;;;;;2.40;1.30;;;;;;;34.42;19.80;99133.11;104798;1253;60556;-61
2023/06/01 16:38:49;;;;;;;1.80;1.30;;;;;;;34.17;19.53;99132.77;104539;1256;60457;-64
2023/06/01 16:41:16;;;;;;;4.40;2.00;;;;;;;33.81;19.81;99132.06;104887;1254;73597;-62
2023/06/01 16:43:44;;;;;;;3.70;1.80;;;;;;;33.58;20.30;99130.65;104732;1264;69920;-61
2023/06/01 16:46:11;;;;;;;1.60;1.50;;;;;;;33.43;20.62;99128.30;104377;1253;72919;-62
2023/06/01 16:48:38;;;;;;;3.80;2.00;;;;;;;33.26;21.47;99129.82;104744;1251;60491;-62
2023/06/01 16:51:06;;;;;;;4.30;1.60;;;;;;;33.07;20.90;99130.97;104628;1254;60425;-62
2023/06/01 16:53:33;;;;;;;2.10;1.60;;;;;;;32.85;20.82;99128.89;104449;1269;74075;-65
2023/06/01 16:56:00;;;;;;;1.90;1.70;;;;;;;32.58;21.22;99128.08;104514;1253;70421;-63
2023/06/01 16:58:28;;;;;;;1.70;1.30;;;;;;;32.42;21.25;99128.98;104524;1256;73123;-62
2023/06/01 17:00:55;;;;;;;2.70;1.40;;;;;;;32.31;21.37;99129.54;104728;1256;60553;-62
2023/06/01 17:03:22;;;;;;;2.50;1.30;;;;;;;32.20;21.46;99132.59;104479;1257;60566;-60
2023/06/01 17:05:49;;;;;;;5.60;1.70;;;;;;;32.06;21.46;99129.20;108454;1251;74203;-62
2023/06/01 17:08:16;;;;;;;5.10;1.50;;;;;;;31.90;21.81;99127.41;106983;1252;68580;-59
2023/06/01 17:10:43;;;;;;;4.60;1.90;;;;;;;31.74;22.19;99133.09;106066;1251;73048;-62
2023/06/01 17:13:10;;;;;;;;;;;;;;;31.60;22.34;99129.27;105212;1253;60536;-59
2023/06/01 17:15:37;;;;;;;1.70;1.60;;;;;;;31.49;22.45;99126.41;105349;1256;60351;-59
2023/06/01 17:18:04;;;;;;;1.60;1.30;;;;;;;31.34;22.63;99125.92;104930;1256;75323;-60
2023/06/01 17:20:31;;;;;;;1.60;1.50;;;;;;;31.23;22.06;99127.70;104913;1256;69401;-59
2023/06/01 17:22:58;;;;;;;2.90;1.30;;;;;;;31.19;22.80;99129.23;104401;1256;72956;-59
2023/06/01 17:25:25;;;;;;;1.80;1.40;;;;;;;31.12;22.75;99130.41;104353;1256;61192;-60
2023/06/01 17:27:52;;;;;;;6.10;2.20;;;;;;;30.98;23.15;99132.27;104408;1256;61011;-60
2023/06/01 17:30:19;;;;;;;3.30;1.90;;;;;;;30.83;22.72;99131.24;104538;1267;74141;-59
2023/06/01 17:32:46;;;;;;;4.70;1.40;;;;;;;30.73;22.93;99130.27;104798;1253;69576;-60
2023/06/01 17:35:13;;;;;;;2.60;1.70;;;;;;;30.63;23.01;99128.37;104603;1253;73075;-60
2023/06/01 17:37:40;;;;;;;3.30;1.60;;;;;;;30.53;23.00;99122.91;104557;1251;60561;-60
2023/06/01 17:40:08;;;;;;;1.80;1.70;;;;;;;30.44;23.39;99124.66;104334;1268;61236;-60
2023/06/01 17:42:35;;;;;;;1.80;1.50;;;;;;;30.33;23.28;99127.75;104239;1256;73753;-59
2023/06/01 17:45:03;;;;;;;5.90;1.60;;;;;;;30.23;23.47;99128.05;104705;1254;69364;-60
2023/06/01 17:47:30;;;;;;;1.70;1.40;;;;;;;30.14;24.14;99126.40;104378;1256;71674;-59
2023/06/01 17:49:57;;;;;;;4.20;1.50;;;;;;;30.03;24.41;99127.02;104500;1253;60674;-59
2023/06/01 17:52:23;;;;;;;1.80;1.40;;;;;;;29.96;24.73;99130.40;104373;1254;60560;-63
2023/06/01 17:54:51;;;;;;;2.70;1.50;;;;;;;29.87;25.66;99130.34;105326;1256;74627;-61
2023/06/01 17:57:18;;;;;;;2.30;1.30;;;;;;;29.76;26.22;99131.79;108541;1251;69296;-60
2023/06/01 17:59:44;;;;;;;2.50;1.40;;;;;;;29.63;25.96;99128.59;106261;1251;72229;-59
2023/06/01 18:02:12;;;;;;;1.80;1.60;;;;;;;29.54;27.19;99135.05;104439;1257;60361;-58